Time;durP1;ratioP1;P1;durP2;ratioP2;P2;SDS_P1;SDS_P2;PMS_P1;PMS_P2;Temp;Humidity;BMP_temperature;BMP_pressure;BME280_temperature;BME280_humidity;BME280_pressure;Samples;Min_cycle;Max_cycle;Signal;HPM_P1;HPM_P2
2023/05/09 00:01:30;;;;;;;3.30;1.60;;;;;;;7.45;100.00;101038.56;105283;1260;60858;-56
2023/05/09 00:03:58;;;;;;;2.70;0.90;;;;;;;7.44;100.00;101043.48;105208;1255;63115;-55
2023/05/09 00:06:26;;;;;;;2.60;0.90;;;;;;;7.44;100.00;101042.67;105154;1256;75586;-52
2023/05/09 00:08:54;;;;;;;3.30;1.50;;;;;;;7.43;100.00;101042.81;105359;1256;67687;-53
2023/05/09 00:11:21;;;;;;;3.90;1.30;;;;;;;7.42;100.00;101043.16;105649;1256;75165;-53
2023/05/09 00:13:49;;;;;;;3.10;1.40;;;;;;;7.42;100.00;101045.25;105406;1260;60580;-53
2023/05/09 00:16:16;;;;;;;5.30;1.40;;;;;;;7.42;100.00;101043.06;105120;1258;62725;-53
2023/05/09 00:18:44;;;;;;;4.00;1.40;;;;;;;7.40;100.00;101043.92;105704;1257;76289;-54
2023/05/09 00:21:11;;;;;;;4.20;1.20;;;;;;;7.37;100.00;101047.64;105579;1258;69759;-54
2023/05/09 00:23:38;;;;;;;3.80;1.40;;;;;;;7.35;100.00;101047.99;105778;1255;74941;-54
2023/05/09 00:26:05;;;;;;;3.30;1.20;;;;;;;7.34;100.00;101046.36;105143;1256;61847;-56
2023/05/09 00:28:33;;;;;;;3.70;2.10;;;;;;;7.34;100.00;101050.51;107686;1254;62437;-55
2023/05/09 00:30:59;;;;;;;3.70;1.20;;;;;;;7.33;100.00;101050.41;106528;1258;76214;-54
2023/05/09 00:33:27;;;;;;;4.00;1.50;;;;;;;7.32;100.00;101054.19;105346;1255;68607;-52
2023/05/09 00:35:54;;;;;;;2.90;1.10;;;;;;;7.30;100.00;101053.51;105198;1261;75088;-56
2023/05/09 00:38:22;;;;;;;3.40;1.50;;;;;;;7.28;100.00;101054.99;105312;1256;62429;-52
2023/05/09 00:40:49;;;;;;;3.70;1.10;;;;;;;7.28;100.00;101056.80;105489;1254;62724;-54
2023/05/09 00:43:16;;;;;;;2.70;1.10;;;;;;;7.26;100.00;101055.60;105119;1257;75251;-53
2023/05/09 00:45:44;;;;;;;3.70;1.50;;;;;;;7.24;100.00;101054.72;105090;1260;68271;-53
2023/05/09 00:48:11;;;;;;;2.70;1.20;;;;;;;7.24;100.00;101053.90;105128;1258;75453;-53
2023/05/09 00:50:39;;;;;;;2.90;1.40;;;;;;;7.23;100.00;101057.98;105418;1259;61824;-53
2023/05/09 00:53:06;;;;;;;4.30;1.50;;;;;;;7.23;100.00;101055.99;105107;1256;61840;-53
2023/05/09 00:55:33;;;;;;;7.20;2.10;;;;;;;7.22;100.00;101057.16;105046;1260;76518;-53
2023/05/09 00:58:02;;;;;;;5.30;1.90;;;;;;;7.21;100.00;101053.08;105600;1256;68373;-53
2023/05/09 01:00:29;;;;;;;4.60;2.00;;;;;;;7.22;100.00;101054.08;105645;1258;74024;-57
2023/05/09 01:02:56;;;;;;;4.50;1.40;;;;;;;7.23;100.00;101055.85;104997;1258;61049;-54
2023/05/09 01:05:26;;;;;;;4.20;2.00;;;;;;;7.23;100.00;101055.52;105236;1256;62570;-56
2023/05/09 01:07:56;;;;;;;2.40;1.30;;;;;;;7.22;100.00;101055.15;105492;1256;75039;-55
2023/05/09 01:10:42;;;;;;;3.60;1.70;;;;;;;7.21;100.00;101054.86;105381;1260;68306;-54
2023/05/09 01:13:21;;;;;;;4.20;1.70;;;;;;;7.19;100.00;101056.55;105587;1256;74421;-54
2023/05/09 01:15:54;;;;;;;3.10;1.40;;;;;;;7.18;100.00;101055.27;104992;1260;61092;-58
2023/05/09 01:18:30;;;;;;;3.20;1.60;;;;;;;7.17;100.00;101056.27;105135;1256;62739;-56
2023/05/09 01:21:16;;;;;;;5.40;1.60;;;;;;;7.15;100.00;101054.05;105909;1256;74972;-54
2023/05/09 01:23:43;;;;;;;3.20;1.30;;;;;;;7.13;100.00;101049.89;105078;1258;68638;-55
2023/05/09 01:26:58;;;;;;;4.20;1.50;;;;;;;7.11;100.00;101045.41;104879;1254;75581;-53
2023/05/09 01:29:58;;;;;;;4.30;2.00;;;;;;;7.10;100.00;101051.55;104881;1266;62023;-52
2023/05/09 01:32:27;;;;;;;4.50;1.60;;;;;;;7.08;100.00;101052.05;105159;1256;61899;-54
2023/05/09 01:34:55;;;;;;;5.60;1.70;;;;;;;7.06;100.00;101053.42;105605;1256;76326;-52
2023/05/09 01:37:32;;;;;;;7.20;1.80;;;;;;;7.05;100.00;101052.66;105091;1260;69469;-53
2023/05/09 01:40:08;;;;;;;4.10;1.60;;;;;;;7.05;100.00;101054.90;105204;1260;75562;-53
2023/05/09 01:42:57;;;;;;;3.10;1.60;;;;;;;7.04;100.00;101057.75;105271;1256;61033;-53
2023/05/09 01:45:25;;;;;;;3.70;1.40;;;;;;;7.02;100.00;101057.61;105567;1256;62683;-53
2023/05/09 01:47:52;;;;;;;3.10;1.50;;;;;;;7.01;100.00;101062.52;105442;1257;76174;-53
2023/05/09 01:50:19;;;;;;;2.90;1.50;;;;;;;7.01;100.00;101062.06;105194;1260;69631;-53
2023/05/09 01:52:48;;;;;;;4.70;1.40;;;;;;;7.00;100.00;101065.21;105237;1261;75372;-54
2023/05/09 01:55:15;;;;;;;4.70;1.90;;;;;;;6.99;100.00;101062.19;105141;1256;60667;-53
2023/05/09 01:57:44;;;;;;;3.70;2.10;;;;;;;6.97;100.00;101063.64;105145;1258;62494;-56
2023/05/09 02:00:12;;;;;;;4.00;2.00;;;;;;;6.94;100.00;101061.67;105036;1256;76433;-54
2023/05/09 02:02:39;;;;;;;5.60;1.90;;;;;;;6.92;100.00;101058.19;105395;1255;68143;-54
2023/05/09 02:05:08;;;;;;;5.00;2.10;;;;;;;6.91;100.00;101056.95;105679;1255;75142;-58
2023/05/09 02:07:36;;;;;;;4.70;1.80;;;;;;;6.89;100.00;101057.02;105362;1256;61110;-55
2023/05/09 02:10:04;;;;;;;4.00;1.80;;;;;;;6.88;100.00;101058.23;105406;1256;62525;-54
2023/05/09 02:12:31;;;;;;;6.00;1.80;;;;;;;6.87;100.00;101058.16;104886;1263;75368;-54
2023/05/09 02:14:58;;;;;;;3.90;2.40;;;;;;;6.87;100.00;101057.25;105506;1256;68255;-57
2023/05/09 02:17:25;;;;;;;6.60;3.00;;;;;;;6.87;100.00;101061.95;105542;1256;75168;-54
2023/05/09 02:19:52;;;;;;;3.70;1.70;;;;;;;6.86;100.00;101063.40;105549;1256;61100;-55
2023/05/09 02:22:20;;;;;;;4.00;1.70;;;;;;;6.86;100.00;101064.66;105359;1254;62403;-54
2023/05/09 02:24:47;;;;;;;4.80;2.00;;;;;;;6.85;100.00;101069.33;105070;1254;75268;-54
2023/05/09 02:27:14;;;;;;;3.30;1.60;;;;;;;6.85;100.00;101066.44;104767;1260;68522;-55
2023/05/09 02:29:45;;;;;;;3.60;1.50;;;;;;;6.86;100.00;101063.42;105166;1260;73788;-54
2023/05/09 02:32:18;;;;;;;5.60;1.70;;;;;;;6.87;100.00;101066.30;105022;1260;61940;-54
2023/05/09 02:34:45;;;;;;;4.30;1.60;;;;;;;6.86;100.00;101069.45;105490;1256;61733;-55
2023/05/09 02:37:13;;;;;;;5.00;2.10;;;;;;;6.87;100.00;101072.27;105217;1257;76615;-54
2023/05/09 02:39:40;;;;;;;3.50;1.80;;;;;;;6.88;100.00;101073.92;105619;1255;68387;-56
2023/05/09 02:42:09;;;;;;;5.50;2.00;;;;;;;6.89;100.00;101079.70;104820;1255;75542;-53
2023/05/09 02:44:37;;;;;;;4.00;1.50;;;;;;;6.89;100.00;101080.19;105719;1258;60671;-54
2023/05/09 02:47:05;;;;;;;5.10;1.80;;;;;;;6.91;100.00;101079.92;105678;1254;63052;-53
2023/05/09 02:49:33;;;;;;;5.00;2.40;;;;;;;6.93;100.00;101079.72;105521;1261;77082;-54
2023/05/09 02:52:01;;;;;;;3.40;1.40;;;;;;;6.95;100.00;101083.52;105470;1254;69289;-54
2023/05/09 02:54:28;;;;;;;4.90;1.80;;;;;;;6.97;100.00;101077.98;104924;1254;75026;-57
2023/05/09 02:56:55;;;;;;;3.40;1.30;;;;;;;6.98;100.00;101075.41;104765;1261;61941;-53
2023/05/09 02:59:22;;;;;;;5.40;1.60;;;;;;;7.00;100.00;101073.16;105490;1258;61774;-56
2023/05/09 03:01:50;;;;;;;4.40;1.40;;;;;;;7.01;100.00;101074.94;105627;1258;76323;-56
2023/05/09 03:04:18;;;;;;;4.30;1.60;;;;;;;7.03;100.00;101082.92;105244;1261;69714;-58
2023/05/09 03:06:46;;;;;;;3.10;1.40;;;;;;;7.04;100.00;101079.86;105565;1256;74180;-56
2023/05/09 03:09:13;;;;;;;3.40;1.40;;;;;;;7.06;100.00;101078.45;105477;1254;62382;-53
2023/05/09 03:11:40;;;;;;;4.70;1.60;;;;;;;7.08;100.00;101079.89;105331;1258;60873;-55
2023/05/09 03:14:07;;;;;;;3.80;1.40;;;;;;;7.11;100.00;101086.18;105861;1256;76328;-59
2023/05/09 03:16:34;;;;;;;4.00;1.40;;;;;;;7.13;100.00;101084.60;105757;1253;69899;-58
2023/05/09 03:19:02;;;;;;;2.90;1.60;;;;;;;7.16;100.00;101085.92;105437;1257;75470;-56
2023/05/09 03:21:30;;;;;;;4.70;1.50;;;;;;;7.20;100.00;101088.15;105570;1257;60760;-55
2023/05/09 03:23:58;;;;;;;3.20;1.50;;;;;;;7.25;100.00;101093.36;105532;1259;61733;-55
2023/05/09 03:26:25;;;;;;;2.50;1.30;;;;;;;7.35;100.00;101096.92;105370;1254;76641;-55
2023/05/09 03:28:53;;;;;;;3.00;1.70;;;;;;;7.34;100.00;101101.67;106110;1258;68216;-56
2023/05/09 03:31:20;;;;;;;4.90;1.70;;;;;;;7.35;100.00;101101.10;105352;1254;74972;-55
2023/05/09 03:33:47;;;;;;;5.00;1.30;;;;;;;7.36;100.00;101100.17;105267;1257;60994;-55
2023/05/09 03:36:14;;;;;;;5.40;1.30;;;;;;;7.39;100.00;101102.13;105067;1258;61492;-57
2023/05/09 03:38:42;;;;;;;5.60;1.90;;;;;;;7.41;100.00;101102.84;105349;1257;75297;-57
2023/05/09 03:41:09;;;;;;;4.70;1.40;;;;;;;7.43;100.00;101104.66;105191;1256;68615;-55
2023/05/09 03:43:36;;;;;;;3.70;1.30;;;;;;;7.45;100.00;101105.69;104962;1260;75130;-54
2023/05/09 03:46:04;;;;;;;6.60;2.10;;;;;;;7.48;100.00;101108.30;105039;1260;62083;-58
2023/05/09 03:48:31;;;;;;;6.70;1.60;;;;;;;7.51;100.00;101112.06;105228;1254;61675;-55
2023/05/09 03:50:58;;;;;;;3.30;1.40;;;;;;;7.53;100.00;101112.16;105061;1260;76575;-55
2023/05/09 03:53:26;;;;;;;3.60;1.20;;;;;;;7.57;100.00;101113.05;105217;1262;68350;-56
2023/05/09 03:55:54;;;;;;;4.70;1.60;;;;;;;7.61;100.00;101111.02;105068;1261;74219;-56
2023/05/09 03:58:21;;;;;;;4.90;1.60;;;;;;;7.64;100.00;101110.37;105437;1259;60792;-57
2023/05/09 04:00:49;;;;;;;6.20;1.70;;;;;;;7.66;100.00;101112.42;105069;1260;61790;-58
2023/05/09 04:03:19;;;;;;;2.80;1.20;;;;;;;7.68;100.00;101113.96;105019;1261;76278;-56
2023/05/09 04:05:47;;;;;;;4.20;1.50;;;;;;;7.72;100.00;101118.10;105247;1254;69568;-56
2023/05/09 04:08:28;;;;;;;3.90;1.50;;;;;;;7.74;100.00;101117.58;104908;1256;74057;-54
2023/05/09 04:10:55;;;;;;;3.90;1.40;;;;;;;7.77;100.00;101116.73;105502;1255;60941;-54
2023/05/09 04:13:23;;;;;;;3.80;1.70;;;;;;;7.81;100.00;101118.92;105147;1256;61122;-57
2023/05/09 04:15:50;;;;;;;5.50;1.60;;;;;;;7.87;100.00;101114.59;105097;1257;76346;-54
2023/05/09 04:18:18;;;;;;;9.10;2.60;;;;;;;7.90;100.00;101115.04;105250;1259;68281;-58
2023/05/09 04:20:45;;;;;;;6.50;1.40;;;;;;;7.91;100.00;101117.11;104919;1260;74551;-58
2023/05/09 04:23:12;;;;;;;2.70;1.40;;;;;;;7.94;100.00;101118.04;105069;1261;61874;-54
2023/05/09 04:25:41;;;;;;;4.80;1.90;;;;;;;7.97;100.00;101118.27;105099;1256;62542;-54
2023/05/09 04:28:08;;;;;;;4.90;1.40;;;;;;;8.02;100.00;101116.23;105107;1255;74959;-56
2023/05/09 04:30:36;;;;;;;5.40;2.20;;;;;;;8.08;100.00;101120.08;105095;1254;69378;-60
2023/05/09 04:33:04;;;;;;;6.90;1.60;;;;;;;8.11;100.00;101116.13;104921;1254;75514;-54
2023/05/09 04:35:31;;;;;;;3.40;1.50;;;;;;;8.16;100.00;101116.92;105192;1254;61878;-54
2023/05/09 04:37:59;;;;;;;4.00;1.20;;;;;;;8.20;100.00;101117.35;105127;1254;63251;-56
2023/05/09 04:40:26;;;;;;;5.30;1.70;;;;;;;8.27;100.00;101115.65;105100;1256;75160;-58
2023/05/09 04:42:57;;;;;;;5.80;1.60;;;;;;;8.34;100.00;101117.63;105425;1259;69585;-58
2023/05/09 04:45:26;;;;;;;6.10;2.20;;;;;;;8.40;100.00;101120.97;105068;1259;74047;-54
2023/05/09 04:47:54;;;;;;;3.90;1.80;;;;;;;8.47;100.00;101116.00;105246;1259;61008;-56
2023/05/09 04:50:21;;;;;;;7.50;1.80;;;;;;;8.56;100.00;101114.45;105637;1258;61455;-58
2023/05/09 04:52:49;;;;;;;5.70;2.30;;;;;;;8.63;100.00;101112.55;105108;1256;76285;-56
2023/05/09 04:55:16;;;;;;;6.80;2.30;;;;;;;8.71;100.00;101116.61;105195;1258;68347;-56
2023/05/09 04:57:45;;;;;;;5.80;1.80;;;;;;;8.78;100.00;101115.23;105136;1261;73346;-55
2023/05/09 05:00:15;;;;;;;4.80;1.60;;;;;;;8.86;100.00;101112.55;105077;1263;60803;-57
2023/05/09 05:02:42;;;;;;;6.20;1.80;;;;;;;8.95;100.00;101116.80;105447;1256;62494;-55
2023/05/09 05:05:10;;;;;;;3.90;1.60;;;;;;;9.09;100.00;101118.47;105151;1260;76114;-57
2023/05/09 05:07:41;;;;;;;4.30;1.90;;;;;;;9.28;100.00;101116.55;104969;1256;70101;-56
2023/05/09 05:10:09;;;;;;;4.20;1.50;;;;;;;9.47;100.00;101116.35;105298;1255;75191;-56
2023/05/09 05:12:37;;;;;;;4.00;1.50;;;;;;;9.67;100.00;101115.41;105479;1260;62528;-57
2023/05/09 05:15:07;;;;;;;6.10;1.50;;;;;;;9.86;100.00;101112.86;105069;1261;62780;-54
2023/05/09 05:17:34;;;;;;;5.80;3.20;;;;;;;10.03;100.00;101111.85;105165;1256;74919;-55
2023/05/09 05:20:05;;;;;;;6.20;3.60;;;;;;;10.19;100.00;101112.80;105239;1256;69517;-56
2023/05/09 05:22:32;;;;;;;5.30;3.00;;;;;;;10.34;100.00;101108.16;105230;1260;74761;-56
2023/05/09 05:25:02;;;;;;;5.30;2.30;;;;;;;10.55;99.57;101105.82;105378;1260;61385;-57
2023/05/09 05:27:30;;;;;;;5.20;1.60;;;;;;;10.72;95.62;101105.55;104962;1258;61520;-56
2023/05/09 05:29:57;;;;;;;8.10;1.90;;;;;;;10.92;95.45;101110.52;105089;1258;74982;-55
2023/05/09 05:32:25;;;;;;;3.40;1.60;;;;;;;11.13;89.72;101110.22;104954;1256;69589;-58
2023/05/09 05:34:52;;;;;;;3.70;1.60;;;;;;;11.33;82.41;101108.73;105029;1260;74151;-56
2023/05/09 05:37:19;;;;;;;3.60;1.50;;;;;;;11.54;80.16;101106.40;104960;1256;62853;-55
2023/05/09 05:39:46;;;;;;;2.80;1.20;;;;;;;11.71;72.90;101103.15;104843;1256;62905;-56
2023/05/09 05:42:13;;;;;;;3.00;1.40;;;;;;;11.85;71.44;101100.95;104955;1256;76383;-55
2023/05/09 05:44:40;;;;;;;3.10;1.30;;;;;;;11.99;70.32;101103.35;105422;1261;68622;-59
2023/05/09 05:47:08;;;;;;;5.10;2.10;;;;;;;12.07;68.39;101108.11;104906;1256;74562;-58
2023/05/09 05:49:36;;;;;;;4.50;1.50;;;;;;;12.24;69.06;101109.41;105127;1260;61571;-57
2023/05/09 05:52:03;;;;;;;6.50;1.40;;;;;;;12.38;62.51;101108.89;105127;1257;61406;-54
2023/05/09 05:54:30;;;;;;;3.70;1.60;;;;;;;12.48;61.84;101109.84;105257;1254;76346;-55
2023/05/09 05:56:57;;;;;;;5.00;1.30;;;;;;;12.68;64.13;101110.02;104649;1261;70078;-54
2023/05/09 05:59:25;;;;;;;3.60;1.50;;;;;;;12.91;62.16;101111.19;105080;1259;75133;-56
2023/05/09 06:01:52;;;;;;;5.10;1.70;;;;;;;13.04;58.86;101109.19;105091;1256;61628;-57
2023/05/09 06:04:20;;;;;;;4.70;1.40;;;;;;;13.11;57.28;101110.86;105272;1261;61405;-56
2023/05/09 06:06:47;;;;;;;2.70;1.40;;;;;;;13.08;56.66;101109.77;105369;1255;74909;-56
2023/05/09 06:09:14;;;;;;;4.00;2.00;;;;;;;13.08;57.78;101113.80;105220;1262;69311;-56
2023/05/09 06:11:41;;;;;;;7.90;1.70;;;;;;;13.13;57.41;101111.62;105081;1256;74148;-55
2023/05/09 06:14:08;;;;;;;7.50;1.90;;;;;;;13.24;55.36;101114.61;105468;1261;62388;-57
2023/05/09 06:16:36;;;;;;;4.90;1.40;;;;;;;13.19;53.51;101111.42;105812;1254;61486;-60
2023/05/09 06:19:03;;;;;;;7.40;1.80;;;;;;;13.19;56.48;101111.43;105039;1259;76553;-54
2023/05/09 06:21:30;;;;;;;4.60;1.60;;;;;;;13.36;55.03;101116.12;105024;1261;68252;-56
2023/05/09 06:23:57;;;;;;;3.80;1.40;;;;;;;13.45;53.06;101111.81;105149;1259;73142;-55
2023/05/09 06:26:40;;;;;;;8.20;1.90;;;;;;;13.43;51.25;101116.75;105519;1254;62812;-60
2023/05/09 06:29:07;;;;;;;4.10;1.50;;;;;;;13.35;50.64;101116.17;105051;1256;63634;-56
2023/05/09 06:31:37;;;;;;;5.20;1.80;;;;;;;13.29;50.28;101120.07;105298;1259;76171;-56
2023/05/09 06:34:05;;;;;;;4.30;1.80;;;;;;;13.16;49.66;101113.71;105146;1256;67893;-56
2023/05/09 06:36:32;;;;;;;4.80;1.70;;;;;;;13.14;51.04;101114.85;105903;1260;75425;-54
2023/05/09 06:39:00;;;;;;;4.10;1.70;;;;;;;13.20;52.43;101116.72;105174;1254;62803;-57
2023/05/09 06:41:27;;;;;;;3.30;1.60;;;;;;;13.28;51.79;101114.65;105351;1256;62697;-56
2023/05/09 06:43:54;;;;;;;3.70;1.50;;;;;;;13.36;52.32;101114.56;105152;1258;75292;-55
2023/05/09 06:46:21;;;;;;;5.00;1.30;;;;;;;13.52;54.12;101113.77;105338;1254;68296;-55
2023/05/09 06:48:48;;;;;;;5.00;1.80;;;;;;;13.71;53.20;101110.80;105223;1260;75305;-54
2023/05/09 06:51:15;;;;;;;4.70;1.60;;;;;;;13.82;48.86;101111.20;105321;1261;61565;-57
2023/05/09 06:53:42;;;;;;;4.70;1.70;;;;;;;13.82;48.43;101112.52;105164;1258;61735;-55
2023/05/09 06:56:10;;;;;;;4.50;1.50;;;;;;;13.80;49.24;101109.47;105240;1260;76198;-58
2023/05/09 06:58:37;;;;;;;5.50;2.30;;;;;;;13.93;49.93;101109.89;105224;1261;68759;-61
2023/05/09 07:01:04;;;;;;;5.20;1.90;;;;;;;14.09;48.76;101109.98;105054;1256;75262;-55
2023/05/09 07:03:32;;;;;;;4.60;2.40;;;;;;;14.18;47.22;101114.04;105301;1260;61791;-55
2023/05/09 07:05:59;;;;;;;5.20;2.00;;;;;;;14.17;45.24;101110.33;105118;1260;61525;-56
2023/05/09 07:08:26;;;;;;;4.50;2.10;;;;;;;14.08;45.88;101112.73;105931;1254;76007;-58
2023/05/09 07:10:53;;;;;;;4.70;1.50;;;;;;;14.09;46.50;101112.45;105183;1254;68517;-55
2023/05/09 07:13:20;;;;;;;4.00;1.70;;;;;;;14.13;46.25;101110.73;104943;1254;75227;-55
2023/05/09 07:15:47;;;;;;;6.20;2.10;;;;;;;14.17;45.22;101113.00;105010;1261;61516;-54
2023/05/09 07:18:14;;;;;;;7.50;1.50;;;;;;;14.11;43.83;101111.19;105207;1256;62713;-54
2023/05/09 07:20:41;;;;;;;4.50;2.10;;;;;;;14.02;43.52;101105.84;104813;1262;76291;-59
2023/05/09 07:23:09;;;;;;;4.90;1.60;;;;;;;14.01;44.72;101106.11;105009;1254;68489;-55
2023/05/09 07:25:36;;;;;;;11.10;2.00;;;;;;;14.08;43.09;101105.42;104932;1256;75080;-56
2023/05/09 07:28:04;;;;;;;4.90;1.80;;;;;;;14.13;43.24;101104.34;105126;1257;61767;-56
2023/05/09 07:30:31;;;;;;;8.30;2.00;;;;;;;14.15;43.24;101102.99;106042;1256;61591;-56
2023/05/09 07:32:58;;;;;;;6.70;2.10;;;;;;;14.16;42.76;101099.13;104879;1261;76364;-60
2023/05/09 07:35:25;;;;;;;4.80;1.90;;;;;;;14.26;42.19;101093.15;105065;1258;70123;-55
2023/05/09 07:37:52;;;;;;;6.10;1.90;;;;;;;14.48;41.44;101091.34;105089;1256;75170;-55
2023/05/09 07:40:20;;;;;;;4.60;1.90;;;;;;;14.73;39.49;101084.03;105067;1254;62684;-59
2023/05/09 07:42:48;;;;;;;3.30;1.60;;;;;;;15.01;39.07;101082.17;105195;1261;61157;-56
2023/05/09 07:45:16;;;;;;;4.00;1.60;;;;;;;15.27;38.68;101073.13;105309;1254;75333;-57
2023/05/09 07:47:45;;;;;;;5.80;1.70;;;;;;;15.54;38.53;101063.91;105438;1260;68364;-56
2023/05/09 07:50:12;;;;;;;4.10;1.40;;;;;;;15.75;36.95;101065.81;105726;1258;75264;-56
2023/05/09 07:52:40;;;;;;;8.10;1.90;;;;;;;15.89;36.36;101056.52;105228;1261;61861;-55
2023/05/09 07:55:07;;;;;;;4.00;1.50;;;;;;;16.12;35.41;101055.42;105113;1256;61413;-59
2023/05/09 07:57:35;;;;;;;4.80;1.70;;;;;;;16.31;35.71;101058.65;105106;1256;75086;-56
2023/05/09 08:00:03;;;;;;;4.60;1.50;;;;;;;16.43;35.20;101054.62;105164;1257;68532;-55
2023/05/09 08:02:39;;;;;;;4.20;1.70;;;;;;;16.46;34.51;101052.48;105091;1256;73726;-56
2023/05/09 08:05:07;;;;;;;7.20;1.70;;;;;;;16.51;34.58;101055.07;105198;1262;61675;-56
2023/05/09 08:07:34;;;;;;;4.90;2.00;;;;;;;16.60;33.85;101048.05;105215;1261;61757;-56
2023/05/09 08:10:02;;;;;;;7.50;1.90;;;;;;;16.71;33.73;101041.27;105444;1256;74926;-57
2023/05/09 08:12:29;;;;;;;5.40;1.60;;;;;;;16.84;34.01;101048.40;105848;1256;69211;-58
2023/05/09 08:14:56;;;;;;;3.20;1.80;;;;;;;16.90;33.10;101041.29;105046;1256;74107;-60
2023/05/09 08:17:23;;;;;;;2.60;1.40;;;;;;;16.89;32.74;101038.30;104888;1256;63219;-55
2023/05/09 08:19:50;;;;;;;8.50;1.80;;;;;;;16.90;33.57;101032.17;104889;1256;62403;-56
2023/05/09 08:22:18;;;;;;;4.50;1.70;;;;;;;17.02;32.27;101036.33;105321;1257;76298;-57
2023/05/09 08:24:45;;;;;;;4.80;1.60;;;;;;;16.89;32.20;101028.52;105034;1256;68588;-61
2023/05/09 08:27:13;;;;;;;4.50;2.10;;;;;;;16.85;32.93;101025.91;104959;1256;75277;-57
2023/05/09 08:29:40;;;;;;;3.60;1.80;;;;;;;16.96;32.77;101021.15;105041;1262;63397;-56
2023/05/09 08:32:08;;;;;;;6.10;1.80;;;;;;;16.98;32.45;101021.88;104891;1262;62893;-57
2023/05/09 08:34:35;;;;;;;6.10;2.10;;;;;;;16.97;32.91;101019.92;105152;1261;76099;-56
2023/05/09 08:37:03;;;;;;;4.00;1.80;;;;;;;17.06;32.46;101018.13;105920;1261;68212;-60
2023/05/09 08:39:30;;;;;;;3.30;1.40;;;;;;;17.06;32.81;101016.79;105071;1261;75217;-54
2023/05/09 08:41:58;;;;;;;3.00;1.40;;;;;;;17.19;33.32;101014.48;105419;1256;62992;-55
2023/05/09 08:44:26;;;;;;;2.90;1.20;;;;;;;17.47;32.89;101013.86;105187;1260;61653;-58
2023/05/09 08:47:01;;;;;;;6.50;2.00;;;;;;;17.64;31.73;101012.79;105288;1255;75202;-55
2023/05/09 08:49:28;;;;;;;4.60;1.20;;;;;;;17.67;31.48;101001.95;105372;1257;70133;-57
2023/05/09 08:51:55;;;;;;;4.80;1.50;;;;;;;17.72;31.86;101004.99;105407;1256;75178;-55
2023/05/09 08:54:23;;;;;;;2.40;1.00;;;;;;;17.74;31.16;101001.18;105290;1262;61584;-57
2023/05/09 08:56:50;;;;;;;3.00;1.60;;;;;;;17.73;30.53;101007.22;105153;1254;62603;-56
2023/05/09 08:59:18;;;;;;;4.60;1.40;;;;;;;17.60;30.13;101011.35;105488;1259;76218;-60
2023/05/09 09:01:45;;;;;;;4.10;1.60;;;;;;;17.38;30.17;101004.91;105678;1256;69223;-57
2023/05/09 09:04:12;;;;;;;4.50;1.20;;;;;;;17.25;30.93;101002.25;105936;1256;75235;-56
2023/05/09 09:06:39;;;;;;;3.50;1.40;;;;;;;17.15;29.44;101005.13;105199;1261;62939;-56
2023/05/09 09:09:07;;;;;;;1.90;1.00;;;;;;;16.92;29.64;101005.56;105414;1254;61770;-57
2023/05/09 09:11:35;;;;;;;5.50;1.30;;;;;;;16.91;30.77;100997.98;105385;1256;76764;-58
2023/05/09 09:14:15;;;;;;;8.70;1.80;;;;;;;16.95;30.49;100995.05;105559;1256;69946;-56
2023/05/09 09:16:43;;;;;;;2.90;1.40;;;;;;;17.05;30.41;100986.14;104890;1265;74967;-59
2023/05/09 09:19:12;;;;;;;2.50;1.20;;;;;;;17.13;29.49;100985.05;105021;1262;60672;-56
2023/05/09 09:21:43;;;;;;;6.90;1.60;;;;;;;17.17;29.66;100980.85;105281;1256;62434;-56
2023/05/09 09:24:14;;;;;;;3.00;1.20;;;;;;;17.20;29.77;100977.67;105609;1259;76327;-55
2023/05/09 09:26:45;;;;;;;3.50;1.20;;;;;;;17.26;29.58;100979.09;104991;1262;68579;-57
2023/05/09 09:29:12;;;;;;;2.20;1.20;;;;;;;17.36;29.33;100978.49;105239;1260;76149;-54
2023/05/09 09:31:39;;;;;;;3.10;1.10;;;;;;;17.43;29.60;100975.17;105324;1260;62358;-56
2023/05/09 09:34:07;;;;;;;6.70;1.10;;;;;;;17.62;29.82;100968.21;105242;1255;62780;-57
2023/05/09 09:36:37;;;;;;;3.40;1.40;;;;;;;17.92;29.24;100964.81;105853;1254;76306;-59
2023/05/09 09:39:04;;;;;;;2.80;1.10;;;;;;;17.98;28.87;100973.13;105049;1260;68421;-59
2023/05/09 09:41:36;;;;;;;3.40;1.10;;;;;;;17.92;28.62;100963.11;105258;1254;75377;-56
2023/05/09 09:44:08;;;;;;;2.60;1.20;;;;;;;18.06;28.48;100968.48;104833;1257;62884;-57
2023/05/09 09:46:40;;;;;;;4.20;1.00;;;;;;;18.13;28.06;100972.77;105716;1256;62610;-57
2023/05/09 09:49:09;;;;;;;3.80;1.50;;;;;;;17.90;28.28;100971.98;105130;1256;76502;-56
2023/05/09 09:51:36;;;;;;;2.50;1.00;;;;;;;17.66;28.84;100970.10;105243;1260;68080;-55
2023/05/09 09:54:06;;;;;;;5.30;1.30;;;;;;;17.38;28.80;100967.91;105272;1259;74949;-56
2023/05/09 09:56:41;;;;;;;3.20;1.10;;;;;;;17.27;29.96;100967.05;105837;1254;63114;-57
2023/05/09 09:59:10;;;;;;;3.30;1.00;;;;;;;17.51;29.96;100958.30;105366;1259;62091;-58
2023/05/09 10:01:57;;;;;;;3.80;1.60;;;;;;;17.74;29.22;100958.25;105071;1258;75145;-58
2023/05/09 10:04:27;;;;;;;5.00;1.10;;;;;;;17.67;28.21;100961.28;105446;1254;69705;-55
2023/05/09 10:06:55;;;;;;;4.10;1.00;;;;;;;17.47;28.39;100966.81;105504;1254;75294;-56
2023/05/09 10:09:23;;;;;;;4.00;1.20;;;;;;;17.16;27.66;100961.02;105177;1261;61832;-55
2023/05/09 10:11:53;;;;;;;2.80;1.20;;;;;;;16.80;28.90;100962.20;105148;1257;61654;-57
2023/05/09 10:14:24;;;;;;;2.50;1.10;;;;;;;16.65;28.93;100968.64;104775;1254;75411;-54
2023/05/09 10:16:55;;;;;;;5.70;1.40;;;;;;;16.45;29.48;100967.90;105030;1260;70191;-54
2023/05/09 10:19:25;;;;;;;3.00;1.20;;;;;;;16.31;29.38;100962.73;105143;1259;74248;-57
2023/05/09 10:21:54;;;;;;;4.10;1.40;;;;;;;16.15;29.63;100962.45;105345;1256;62573;-56
2023/05/09 10:24:27;;;;;;;2.90;1.10;;;;;;;16.11;30.37;100964.56;105025;1263;61801;-59
2023/05/09 10:26:58;;;;;;;3.10;1.40;;;;;;;16.14;30.65;100966.90;106313;1254;76464;-55
2023/05/09 10:29:25;;;;;;;5.40;1.20;;;;;;;16.16;30.29;100964.52;105699;1260;68186;-60
2023/05/09 10:31:53;;;;;;;2.90;1.00;;;;;;;16.05;29.79;100958.77;105580;1257;75165;-56
2023/05/09 10:34:21;;;;;;;2.10;1.00;;;;;;;15.89;30.22;100963.24;105520;1256;62605;-56
2023/05/09 10:36:48;;;;;;;3.60;1.80;;;;;;;15.79;29.73;100963.07;105209;1262;61568;-56
2023/05/09 10:39:15;;;;;;;5.40;2.30;;;;;;;15.70;29.93;100959.65;104948;1254;75004;-60
2023/05/09 10:41:42;;;;;;;2.80;1.50;;;;;;;15.63;30.13;100958.19;104848;1256;70326;-56
2023/05/09 10:44:09;;;;;;;4.30;2.30;;;;;;;15.54;30.02;100966.26;105158;1257;75585;-56
2023/05/09 10:46:36;;;;;;;3.00;1.60;;;;;;;15.43;29.88;100965.25;104999;1267;61419;-58
2023/05/09 10:49:03;;;;;;;4.50;1.40;;;;;;;15.29;29.83;100967.98;105107;1260;63078;-57
2023/05/09 10:51:31;;;;;;;4.80;2.10;;;;;;;15.16;30.22;100967.70;105107;1260;74948;-56
2023/05/09 10:53:58;;;;;;;3.70;2.20;;;;;;;15.10;30.54;100965.29;105540;1260;68548;-57
2023/05/09 10:56:30;;;;;;;5.80;1.70;;;;;;;15.13;31.38;100964.65;105064;1256;75094;-61
2023/05/09 10:58:58;;;;;;;6.30;2.10;;;;;;;15.17;30.78;100965.48;105271;1257;61136;-58
2023/05/09 11:01:33;;;;;;;5.40;1.80;;;;;;;15.13;31.59;100970.88;105204;1260;61395;-56
2023/05/09 11:04:07;;;;;;;4.50;2.00;;;;;;;15.10;31.96;100967.06;105077;1256;77021;-56
2023/05/09 11:06:48;;;;;;;4.00;1.70;;;;;;;15.09;32.28;100971.34;105310;1257;70169;-56
2023/05/09 11:09:32;;;;;;;5.10;1.60;;;;;;;15.04;32.21;100964.48;105810;1254;75420;-56
2023/05/09 11:12:03;;;;;;;5.80;2.10;;;;;;;15.01;33.08;100968.27;105570;1257;61634;-57
2023/05/09 11:14:40;;;;;;;4.60;2.80;;;;;;;15.04;32.32;100956.79;105337;1259;62680;-57
2023/05/09 11:17:29;;;;;;;6.00;2.40;;;;;;;15.05;32.83;100959.41;105207;1259;76248;-56
2023/05/09 11:19:58;;;;;;;4.10;1.60;;;;;;;15.13;32.64;100958.23;105143;1254;68702;-58
2023/05/09 11:22:27;;;;;;;4.90;2.20;;;;;;;15.19;31.90;100951.30;105236;1260;74995;-57
2023/05/09 11:25:06;;;;;;;4.90;2.70;;;;;;;15.17;31.75;100944.59;104937;1262;62909;-56